sensor_id;sensor_type;location;lat;lon;timestamp;temperature;humidity
13850;DHT22;6995;52.618;13.488;2024-03-02T00:00:07;8.40;1.00
13850;DHT22;6995;52.618;13.488;2024-03-02T00:02:45;8.30;1.00
13850;DHT22;6995;52.618;13.488;2024-03-02T00:05:15;8.40;31.50
13850;DHT22;6995;52.618;13.488;2024-03-02T00:07:42;8.40;36.80
13850;DHT22;6995;52.618;13.488;2024-03-02T00:10:09;8.40;27.70
13850;DHT22;6995;52.618;13.488;2024-03-02T00:12:39;8.40;24.50
13850;DHT22;6995;52.618;13.488;2024-03-02T00:18:02;8.40;70.50
13850;DHT22;6995;52.618;13.488;2024-03-02T00:20:30;8.40;66.60
13850;DHT22;6995;52.618;13.488;2024-03-02T00:23:06;8.40;82.80
13850;DHT22;6995;52.618;13.488;2024-03-02T00:25:41;8.40;99.90
13850;DHT22;6995;52.618;13.488;2024-03-02T00:33:14;8.40;99.90
13850;DHT22;6995;52.618;13.488;2024-03-02T00:35:39;8.50;63.10
13850;DHT22;6995;52.618;13.488;2024-03-02T00:38:08;8.60;54.50
13850;DHT22;6995;52.618;13.488;2024-03-02T00:40:34;8.60;9.60
13850;DHT22;6995;52.618;13.488;2024-03-02T00:43:00;8.60;1.00
13850;DHT22;6995;52.618;13.488;2024-03-02T00:45:27;8.50;1.00
13850;DHT22;6995;52.618;13.488;2024-03-02T00:47:53;8.40;10.60
13850;DHT22;6995;52.618;13.488;2024-03-02T00:50:19;8.40;84.00
13850;DHT22;6995;52.618;13.488;2024-03-02T00:52:45;8.40;99.90
13850;DHT22;6995;52.618;13.488;2024-03-02T00:55:14;8.40;99.90
13850;DHT22;6995;52.618;13.488;2024-03-02T00:57:39;8.40;60.60
13850;DHT22;6995;52.618;13.488;2024-03-02T01:00:06;8.40;34.60
13850;DHT22;6995;52.618;13.488;2024-03-02T01:02:35;8.40;95.30
13850;DHT22;6995;52.618;13.488;2024-03-02T01:05:01;8.40;78.10
13850;DHT22;6995;52.618;13.488;2024-03-02T01:07:26;8.40;45.90
13850;DHT22;6995;52.618;13.488;2024-03-02T01:09:52;8.40;36.20
13850;DHT22;6995;52.618;13.488;2024-03-02T01:12:18;8.40;28.70
13850;DHT22;6995;52.618;13.488;2024-03-02T01:14:43;8.40;26.40
13850;DHT22;6995;52.618;13.488;2024-03-02T01:17:09;8.30;79.50
13850;DHT22;6995;52.618;13.488;2024-03-02T01:19:35;8.40;99.90
13850;DHT22;6995;52.618;13.488;2024-03-02T01:22:00;8.40;99.90
13850;DHT22;6995;52.618;13.488;2024-03-02T01:24:26;8.40;99.90
13850;DHT22;6995;52.618;13.488;2024-03-02T01:26:52;8.50;80.90
13850;DHT22;6995;52.618;13.488;2024-03-02T01:29:18;8.60;73.90
13850;DHT22;6995;52.618;13.488;2024-03-02T01:31:43;8.60;32.20
13850;DHT22;6995;52.618;13.488;2024-03-02T01:34:09;8.60;12.20
13850;DHT22;6995;52.618;13.488;2024-03-02T01:36:35;8.70;76.90
13850;DHT22;6995;52.618;13.488;2024-03-02T01:39:00;8.70;57.80
13850;DHT22;6995;52.618;13.488;2024-03-02T01:41:27;8.70;99.90
13850;DHT22;6995;52.618;13.488;2024-03-02T01:43:52;8.70;99.90
13850;DHT22;6995;52.618;13.488;2024-03-02T01:46:19;8.80;99.90
13850;DHT22;6995;52.618;13.488;2024-03-02T01:48:44;8.90;99.90
13850;DHT22;6995;52.618;13.488;2024-03-02T01:51:10;8.90;99.90
13850;DHT22;6995;52.618;13.488;2024-03-02T01:53:36;8.90;99.90
13850;DHT22;6995;52.618;13.488;2024-03-02T01:56:02;9.00;99.90
13850;DHT22;6995;52.618;13.488;2024-03-02T01:58:27;9.00;99.90
13850;DHT22;6995;52.618;13.488;2024-03-02T02:00:53;8.90;99.90
13850;DHT22;6995;52.618;13.488;2024-03-02T02:03:19;8.90;99.90
13850;DHT22;6995;52.618;13.488;2024-03-02T02:05:45;8.90;99.90
13850;DHT22;6995;52.618;13.488;2024-03-02T02:08:12;8.90;99.90
13850;DHT22;6995;52.618;13.488;2024-03-02T02:10:38;8.80;99.90
13850;DHT22;6995;52.618;13.488;2024-03-02T02:13:03;8.80;99.90
13850;DHT22;6995;52.618;13.488;2024-03-02T02:15:30;8.80;99.90
13850;DHT22;6995;52.618;13.488;2024-03-02T02:17:56;8.90;99.90
13850;DHT22;6995;52.618;13.488;2024-03-02T02:20:23;8.90;99.90
13850;DHT22;6995;52.618;13.488;2024-03-02T02:23:04;9.00;99.90
13850;DHT22;6995;52.618;13.488;2024-03-02T02:25:35;9.00;99.90
13850;DHT22;6995;52.618;13.488;2024-03-02T02:28:01;9.10;99.90
13850;DHT22;6995;52.618;13.488;2024-03-02T02:30:31;9.10;99.90
13850;DHT22;6995;52.618;13.488;2024-03-02T02:32:57;9.10;99.90
13850;DHT22;6995;52.618;13.488;2024-03-02T02:35:23;9.20;99.90
13850;DHT22;6995;52.618;13.488;2024-03-02T02:37:55;9.20;99.90
13850;DHT22;6995;52.618;13.488;2024-03-02T02:40:22;9.20;99.90
13850;DHT22;6995;52.618;13.488;2024-03-02T02:42:48;9.20;99.90
13850;DHT22;6995;52.618;13.488;2024-03-02T02:45:14;9.20;99.90
13850;DHT22;6995;52.618;13.488;2024-03-02T02:47:41;9.20;99.90
13850;DHT22;6995;52.618;13.488;2024-03-02T02:50:11;9.20;99.90
13850;DHT22;6995;52.618;13.488;2024-03-02T02:52:38;9.30;99.90
13850;DHT22;6995;52.618;13.488;2024-03-02T02:55:06;9.20;99.90
13850;DHT22;6995;52.618;13.488;2024-03-02T02:57:33;9.20;99.90
13850;DHT22;6995;52.618;13.488;2024-03-02T03:00:04;9.20;99.90
13850;DHT22;6995;52.618;13.488;2024-03-02T03:02:31;9.20;1.00
13850;DHT22;6995;52.618;13.488;2024-03-02T03:04:56;9.30;1.00
13850;DHT22;6995;52.618;13.488;2024-03-02T03:07:23;9.30;1.00
13850;DHT22;6995;52.618;13.488;2024-03-02T03:09:48;9.30;1.00
13850;DHT22;6995;52.618;13.488;2024-03-02T03:12:14;9.40;1.00
13850;DHT22;6995;52.618;13.488;2024-03-02T03:14:43;9.40;1.00
13850;DHT22;6995;52.618;13.488;2024-03-02T03:17:08;9.40;1.00
13850;DHT22;6995;52.618;13.488;2024-03-02T03:19:34;9.40;1.00
13850;DHT22;6995;52.618;13.488;2024-03-02T03:22:00;9.50;1.00
13850;DHT22;6995;52.618;13.488;2024-03-02T03:24:25;9.40;1.00
13850;DHT22;6995;52.618;13.488;2024-03-02T03:26:51;9.40;1.00
13850;DHT22;6995;52.618;13.488;2024-03-02T03:29:16;9.40;1.00
13850;DHT22;6995;52.618;13.488;2024-03-02T03:31:42;9.50;1.00
13850;DHT22;6995;52.618;13.488;2024-03-02T03:34:07;9.50;1.00
13850;DHT22;6995;52.618;13.488;2024-03-02T03:36:33;9.50;1.00
13850;DHT22;6995;52.618;13.488;2024-03-02T03:38:59;9.50;1.00
13850;DHT22;6995;52.618;13.488;2024-03-02T03:41:27;9.50;1.00
13850;DHT22;6995;52.618;13.488;2024-03-02T03:43:53;9.60;1.00
13850;DHT22;6995;52.618;13.488;2024-03-02T03:46:18;9.60;1.00
13850;DHT22;6995;52.618;13.488;2024-03-02T03:48:44;9.60;1.00
13850;DHT22;6995;52.618;13.488;2024-03-02T03:51:09;9.50;1.00
13850;DHT22;6995;52.618;13.488;2024-03-02T03:53:35;9.50;1.00
13850;DHT22;6995;52.618;13.488;2024-03-02T03:56:01;9.50;1.00
13850;DHT22;6995;52.618;13.488;2024-03-02T03:58:26;9.50;1.00
13850;DHT22;6995;52.618;13.488;2024-03-02T04:00:52;9.50;1.00
13850;DHT22;6995;52.618;13.488;2024-03-02T04:03:17;9.60;1.00
13850;DHT22;6995;52.618;13.488;2024-03-02T04:05:43;9.60;1.00
13850;DHT22;6995;52.618;13.488;2024-03-02T04:08:09;9.60;1.00
13850;DHT22;6995;52.618;13.488;2024-03-02T04:10:34;9.50;1.00
13850;DHT22;6995;52.618;13.488;2024-03-02T04:13:00;9.50;1.00
13850;DHT22;6995;52.618;13.488;2024-03-02T04:15:26;9.50;1.00
13850;DHT22;6995;52.618;13.488;2024-03-02T04:17:51;9.60;1.00
13850;DHT22;6995;52.618;13.488;2024-03-02T04:20:17;9.50;1.00
13850;DHT22;6995;52.618;13.488;2024-03-02T04:22:43;9.60;1.00
13850;DHT22;6995;52.618;13.488;2024-03-02T04:25:08;9.60;1.00
13850;DHT22;6995;52.618;13.488;2024-03-02T04:27:35;9.60;1.00
13850;DHT22;6995;52.618;13.488;2024-03-02T04:30:00;9.60;1.00
13850;DHT22;6995;52.618;13.488;2024-03-02T04:32:26;9.60;1.00
13850;DHT22;6995;52.618;13.488;2024-03-02T04:34:52;9.60;1.00
13850;DHT22;6995;52.618;13.488;2024-03-02T04:37:18;9.70;1.00
13850;DHT22;6995;52.618;13.488;2024-03-02T04:39:44;9.70;1.00
13850;DHT22;6995;52.618;13.488;2024-03-02T04:42:10;9.70;1.00
13850;DHT22;6995;52.618;13.488;2024-03-02T04:44:35;9.70;1.00
13850;DHT22;6995;52.618;13.488;2024-03-02T04:47:02;9.70;1.00
13850;DHT22;6995;52.618;13.488;2024-03-02T04:49:28;9.70;1.00
13850;DHT22;6995;52.618;13.488;2024-03-02T04:51:54;9.70;1.00
13850;DHT22;6995;52.618;13.488;2024-03-02T04:54:20;9.70;1.00
13850;DHT22;6995;52.618;13.488;2024-03-02T04:56:45;9.60;1.00
13850;DHT22;6995;52.618;13.488;2024-03-02T04:59:16;9.60;1.00
13850;DHT22;6995;52.618;13.488;2024-03-02T05:01:42;9.60;1.00
13850;DHT22;6995;52.618;13.488;2024-03-02T05:04:08;9.70;1.00
13850;DHT22;6995;52.618;13.488;2024-03-02T05:06:36;9.60;1.00
13850;DHT22;6995;52.618;13.488;2024-03-02T05:09:01;9.70;1.00
13850;DHT22;6995;52.618;13.488;2024-03-02T05:11:27;9.70;1.00
13850;DHT22;6995;52.618;13.488;2024-03-02T05:14:05;9.70;1.00
13850;DHT22;6995;52.618;13.488;2024-03-02T05:16:34;9.70;1.00
13850;DHT22;6995;52.618;13.488;2024-03-02T05:19:00;9.70;1.00
13850;DHT22;6995;52.618;13.488;2024-03-02T05:21:26;9.80;1.00
13850;DHT22;6995;52.618;13.488;2024-03-02T05:23:51;9.80;1.00
13850;DHT22;6995;52.618;13.488;2024-03-02T05:26:17;9.80;1.00
13850;DHT22;6995;52.618;13.488;2024-03-02T05:28:43;9.70;1.00
13850;DHT22;6995;52.618;13.488;2024-03-02T05:31:15;9.70;1.00
13850;DHT22;6995;52.618;13.488;2024-03-02T05:33:41;9.80;1.00
13850;DHT22;6995;52.618;13.488;2024-03-02T05:36:06;9.70;1.00
13850;DHT22;6995;52.618;13.488;2024-03-02T05:38:34;9.70;1.00
13850;DHT22;6995;52.618;13.488;2024-03-02T05:41:00;9.70;1.00
13850;DHT22;6995;52.618;13.488;2024-03-02T05:43:26;9.70;1.00
13850;DHT22;6995;52.618;13.488;2024-03-02T05:45:52;9.70;1.00
13850;DHT22;6995;52.618;13.488;2024-03-02T05:48:17;9.70;1.00
13850;DHT22;6995;52.618;13.488;2024-03-02T05:50:43;9.70;1.00
13850;DHT22;6995;52.618;13.488;2024-03-02T05:53:09;9.70;1.00
13850;DHT22;6995;52.618;13.488;2024-03-02T05:55:34;9.70;1.00
13850;DHT22;6995;52.618;13.488;2024-03-02T05:58:00;9.70;1.00
13850;DHT22;6995;52.618;13.488;2024-03-02T06:00:48;9.70;25.00
13850;DHT22;6995;52.618;13.488;2024-03-02T06:03:13;9.70;60.30
13850;DHT22;6995;52.618;13.488;2024-03-02T06:05:39;9.70;41.90
13850;DHT22;6995;52.618;13.488;2024-03-02T06:08:06;9.70;5.00
13850;DHT22;6995;52.618;13.488;2024-03-02T06:10:32;9.70;44.20
13850;DHT22;6995;52.618;13.488;2024-03-02T06:12:58;9.70;42.80
13850;DHT22;6995;52.618;13.488;2024-03-02T06:15:24;9.70;58.40
13850;DHT22;6995;52.618;13.488;2024-03-02T06:17:51;9.70;52.40
13850;DHT22;6995;52.618;13.488;2024-03-02T06:20:17;9.80;64.10
13850;DHT22;6995;52.618;13.488;2024-03-02T06:22:43;9.80;1.00
13850;DHT22;6995;52.618;13.488;2024-03-02T06:25:08;9.80;1.00
13850;DHT22;6995;52.618;13.488;2024-03-02T06:27:34;9.80;1.00
13850;DHT22;6995;52.618;13.488;2024-03-02T06:29:59;9.80;1.00
13850;DHT22;6995;52.618;13.488;2024-03-02T06:32:25;9.80;1.00
13850;DHT22;6995;52.618;13.488;2024-03-02T06:34:51;9.80;1.00
13850;DHT22;6995;52.618;13.488;2024-03-02T06:37:16;9.90;1.00
13850;DHT22;6995;52.618;13.488;2024-03-02T06:39:43;9.90;1.00
13850;DHT22;6995;52.618;13.488;2024-03-02T06:42:09;9.90;1.00
13850;DHT22;6995;52.618;13.488;2024-03-02T06:44:35;10.00;1.00
13850;DHT22;6995;52.618;13.488;2024-03-02T06:47:01;9.90;1.00
13850;DHT22;6995;52.618;13.488;2024-03-02T06:49:27;10.00;1.00
13850;DHT22;6995;52.618;13.488;2024-03-02T06:51:52;10.00;1.00
13850;DHT22;6995;52.618;13.488;2024-03-02T06:54:18;10.00;1.00
13850;DHT22;6995;52.618;13.488;2024-03-02T06:56:44;10.10;1.00
13850;DHT22;6995;52.618;13.488;2024-03-02T06:59:10;10.10;1.00
13850;DHT22;6995;52.618;13.488;2024-03-02T07:01:35;10.20;1.00
13850;DHT22;6995;52.618;13.488;2024-03-02T07:04:01;10.20;1.00
13850;DHT22;6995;52.618;13.488;2024-03-02T07:06:28;10.20;1.00
13850;DHT22;6995;52.618;13.488;2024-03-02T07:08:54;10.30;1.00
13850;DHT22;6995;52.618;13.488;2024-03-02T07:11:19;10.30;1.00
13850;DHT22;6995;52.618;13.488;2024-03-02T07:13:45;10.20;1.00
13850;DHT22;6995;52.618;13.488;2024-03-02T07:16:10;10.30;1.00
13850;DHT22;6995;52.618;13.488;2024-03-02T07:18:36;10.40;1.00
13850;DHT22;6995;52.618;13.488;2024-03-02T07:21:07;10.40;99.90
13850;DHT22;6995;52.618;13.488;2024-03-02T07:23:33;10.40;99.90
13850;DHT22;6995;52.618;13.488;2024-03-02T07:25:59;10.40;99.90
13850;DHT22;6995;52.618;13.488;2024-03-02T07:28:27;10.40;99.90
13850;DHT22;6995;52.618;13.488;2024-03-02T07:31:03;10.40;99.90
13850;DHT22;6995;52.618;13.488;2024-03-02T07:33:30;10.50;99.90
13850;DHT22;6995;52.618;13.488;2024-03-02T07:35:57;10.60;99.90
13850;DHT22;6995;52.618;13.488;2024-03-02T07:38:23;10.60;99.90
13850;DHT22;6995;52.618;13.488;2024-03-02T07:40:49;10.80;99.90
13850;DHT22;6995;52.618;13.488;2024-03-02T07:43:18;10.70;99.90
13850;DHT22;6995;52.618;13.488;2024-03-02T07:45:45;10.60;99.90
13850;DHT22;6995;52.618;13.488;2024-03-02T07:48:11;10.70;99.90
13850;DHT22;6995;52.618;13.488;2024-03-02T07:50:36;10.60;99.90
13850;DHT22;6995;52.618;13.488;2024-03-02T07:53:07;10.60;99.90
13850;DHT22;6995;52.618;13.488;2024-03-02T07:55:35;10.50;99.90
13850;DHT22;6995;52.618;13.488;2024-03-02T07:58:01;10.50;99.90
13850;DHT22;6995;52.618;13.488;2024-03-02T08:00:27;10.60;99.90
13850;DHT22;6995;52.618;13.488;2024-03-02T08:02:54;10.60;99.90
13850;DHT22;6995;52.618;13.488;2024-03-02T08:05:19;10.60;99.90
13850;DHT22;6995;52.618;13.488;2024-03-02T08:07:46;10.70;99.90
13850;DHT22;6995;52.618;13.488;2024-03-02T08:10:12;10.80;99.90
13850;DHT22;6995;52.618;13.488;2024-03-02T08:12:38;10.80;99.90
13850;DHT22;6995;52.618;13.488;2024-03-02T08:15:04;10.70;99.90
13850;DHT22;6995;52.618;13.488;2024-03-02T08:17:30;10.80;99.90
13850;DHT22;6995;52.618;13.488;2024-03-02T08:19:56;10.80;99.90
13850;DHT22;6995;52.618;13.488;2024-03-02T08:22:23;10.90;99.90
13850;DHT22;6995;52.618;13.488;2024-03-02T08:24:51;10.90;99.90
13850;DHT22;6995;52.618;13.488;2024-03-02T08:27:17;10.90;54.30
13850;DHT22;6995;52.618;13.488;2024-03-02T08:29:42;10.80;52.20
13850;DHT22;6995;52.618;13.488;2024-03-02T08:32:08;10.80;37.80
13850;DHT22;6995;52.618;13.488;2024-03-02T08:34:33;10.90;34.50
13850;DHT22;6995;52.618;13.488;2024-03-02T08:37:01;10.90;22.50
13850;DHT22;6995;52.618;13.488;2024-03-02T08:39:27;11.00;18.30
13850;DHT22;6995;52.618;13.488;2024-03-02T08:41:53;11.00;11.00
13850;DHT22;6995;52.618;13.488;2024-03-02T08:44:19;11.00;13.60
13850;DHT22;6995;52.618;13.488;2024-03-02T08:46:45;11.10;1.00
13850;DHT22;6995;52.618;13.488;2024-03-02T08:49:11;11.10;1.00
13850;DHT22;6995;52.618;13.488;2024-03-02T08:51:37;11.10;1.00
13850;DHT22;6995;52.618;13.488;2024-03-02T08:54:02;10.90;1.00
13850;DHT22;6995;52.618;13.488;2024-03-02T08:56:30;11.00;1.00
13850;DHT22;6995;52.618;13.488;2024-03-02T08:58:56;11.00;1.00
13850;DHT22;6995;52.618;13.488;2024-03-02T09:01:22;11.00;1.00
13850;DHT22;6995;52.618;13.488;2024-03-02T09:03:48;10.90;1.00
13850;DHT22;6995;52.618;13.488;2024-03-02T09:06:15;10.90;1.00
13850;DHT22;6995;52.618;13.488;2024-03-02T09:08:43;10.90;1.00
13850;DHT22;6995;52.618;13.488;2024-03-02T09:11:10;10.80;1.00
13850;DHT22;6995;52.618;13.488;2024-03-02T09:13:36;10.80;1.00
13850;DHT22;6995;52.618;13.488;2024-03-02T09:16:03;10.90;1.00
13850;DHT22;6995;52.618;13.488;2024-03-02T09:18:29;10.80;1.00
13850;DHT22;6995;52.618;13.488;2024-03-02T09:20:55;10.90;1.00
13850;DHT22;6995;52.618;13.488;2024-03-02T09:23:21;10.90;1.00
13850;DHT22;6995;52.618;13.488;2024-03-02T09:25:46;10.90;1.00
13850;DHT22;6995;52.618;13.488;2024-03-02T09:28:12;11.00;1.00
13850;DHT22;6995;52.618;13.488;2024-03-02T09:30:38;11.10;1.00
13850;DHT22;6995;52.618;13.488;2024-03-02T09:33:04;11.10;1.00
13850;DHT22;6995;52.618;13.488;2024-03-02T09:35:29;11.20;1.00
13850;DHT22;6995;52.618;13.488;2024-03-02T09:37:55;11.30;1.00
13850;DHT22;6995;52.618;13.488;2024-03-02T09:40:24;11.60;1.00
13850;DHT22;6995;52.618;13.488;2024-03-02T09:42:51;11.70;1.00
13850;DHT22;6995;52.618;13.488;2024-03-02T09:45:23;11.70;1.00
13850;DHT22;6995;52.618;13.488;2024-03-02T09:47:49;11.90;1.00
13850;DHT22;6995;52.618;13.488;2024-03-02T09:50:14;12.00;1.00
13850;DHT22;6995;52.618;13.488;2024-03-02T09:52:42;12.20;1.00
13850;DHT22;6995;52.618;13.488;2024-03-02T09:55:08;12.40;1.00
13850;DHT22;6995;52.618;13.488;2024-03-02T09:57:34;12.70;1.00
13850;DHT22;6995;52.618;13.488;2024-03-02T09:59:59;12.90;1.00
13850;DHT22;6995;52.618;13.488;2024-03-02T10:02:26;13.10;1.00
13850;DHT22;6995;52.618;13.488;2024-03-02T10:04:51;13.10;1.00
13850;DHT22;6995;52.618;13.488;2024-03-02T10:07:18;13.30;1.00
13850;DHT22;6995;52.618;13.488;2024-03-02T10:09:46;13.20;1.00
13850;DHT22;6995;52.618;13.488;2024-03-02T10:12:13;13.30;1.00
13850;DHT22;6995;52.618;13.488;2024-03-02T10:14:39;13.40;1.00
13850;DHT22;6995;52.618;13.488;2024-03-02T10:17:08;13.60;1.00
13850;DHT22;6995;52.618;13.488;2024-03-02T10:19:34;13.80;1.00
13850;DHT22;6995;52.618;13.488;2024-03-02T10:22:07;14.00;1.00
13850;DHT22;6995;52.618;13.488;2024-03-02T10:24:43;14.00;1.00
13850;DHT22;6995;52.618;13.488;2024-03-02T10:27:31;14.10;99.90
13850;DHT22;6995;52.618;13.488;2024-03-02T10:29:56;13.90;99.90
13850;DHT22;6995;52.618;13.488;2024-03-02T10:32:22;13.70;99.90
13850;DHT22;6995;52.618;13.488;2024-03-02T10:34:48;13.80;99.90
13850;DHT22;6995;52.618;13.488;2024-03-02T10:37:16;13.90;1.00
13850;DHT22;6995;52.618;13.488;2024-03-02T10:39:42;14.10;99.90
13850;DHT22;6995;52.618;13.488;2024-03-02T10:42:09;14.20;99.90
13850;DHT22;6995;52.618;13.488;2024-03-02T10:44:34;14.20;99.90
13850;DHT22;6995;52.618;13.488;2024-03-02T10:47:01;14.20;99.90
13850;DHT22;6995;52.618;13.488;2024-03-02T10:49:30;14.20;99.90
13850;DHT22;6995;52.618;13.488;2024-03-02T10:51:56;14.10;99.90
13850;DHT22;6995;52.618;13.488;2024-03-02T10:54:22;14.20;99.90
13850;DHT22;6995;52.618;13.488;2024-03-02T10:56:53;14.10;99.90
13850;DHT22;6995;52.618;13.488;2024-03-02T11:01:56;14.10;99.90
13850;DHT22;6995;52.618;13.488;2024-03-02T11:04:26;14.30;99.90
13850;DHT22;6995;52.618;13.488;2024-03-02T11:06:54;14.60;99.90
13850;DHT22;6995;52.618;13.488;2024-03-02T11:09:26;14.80;99.90
13850;DHT22;6995;52.618;13.488;2024-03-02T11:12:13;14.80;99.90
13850;DHT22;6995;52.618;13.488;2024-03-02T11:14:42;14.80;99.90
13850;DHT22;6995;52.618;13.488;2024-03-02T11:17:09;14.80;99.90
13850;DHT22;6995;52.618;13.488;2024-03-02T11:19:38;14.60;99.90
13850;DHT22;6995;52.618;13.488;2024-03-02T11:22:04;14.60;99.90
13850;DHT22;6995;52.618;13.488;2024-03-02T11:24:31;14.40;99.90
13850;DHT22;6995;52.618;13.488;2024-03-02T11:27:02;14.40;99.90
13850;DHT22;6995;52.618;13.488;2024-03-02T11:32:06;14.10;99.90
13850;DHT22;6995;52.618;13.488;2024-03-02T11:34:42;14.20;99.90
13850;DHT22;6995;52.618;13.488;2024-03-02T11:37:16;14.20;99.90
13850;DHT22;6995;52.618;13.488;2024-03-02T11:39:44;14.40;99.90
13850;DHT22;6995;52.618;13.488;2024-03-02T11:42:11;14.30;99.90
13850;DHT22;6995;52.618;13.488;2024-03-02T11:44:41;14.20;99.90
13850;DHT22;6995;52.618;13.488;2024-03-02T11:47:09;14.50;99.90
13850;DHT22;6995;52.618;13.488;2024-03-02T11:49:48;14.90;99.90
13850;DHT22;6995;52.618;13.488;2024-03-02T11:52:15;15.00;99.90
13850;DHT22;6995;52.618;13.488;2024-03-02T11:54:43;14.90;99.90
13850;DHT22;6995;52.618;13.488;2024-03-02T11:57:15;14.80;99.90
13850;DHT22;6995;52.618;13.488;2024-03-02T11:59:41;14.70;99.90
13850;DHT22;6995;52.618;13.488;2024-03-02T12:02:14;14.90;99.90
13850;DHT22;6995;52.618;13.488;2024-03-02T12:04:42;15.10;99.90
13850;DHT22;6995;52.618;13.488;2024-03-02T12:07:09;15.20;99.90
13850;DHT22;6995;52.618;13.488;2024-03-02T12:09:35;15.40;99.90
13850;DHT22;6995;52.618;13.488;2024-03-02T12:12:08;15.70;99.90
13850;DHT22;6995;52.618;13.488;2024-03-02T12:14:36;15.50;99.90
13850;DHT22;6995;52.618;13.488;2024-03-02T12:17:02;15.20;99.90
13850;DHT22;6995;52.618;13.488;2024-03-02T12:19:29;15.40;99.90
13850;DHT22;6995;52.618;13.488;2024-03-02T12:21:58;15.60;99.90
13850;DHT22;6995;52.618;13.488;2024-03-02T12:24:26;15.80;99.90
13850;DHT22;6995;52.618;13.488;2024-03-02T12:26:53;15.80;99.90
13850;DHT22;6995;52.618;13.488;2024-03-02T12:29:20;16.00;99.90
13850;DHT22;6995;52.618;13.488;2024-03-02T12:31:51;16.10;99.90
13850;DHT22;6995;52.618;13.488;2024-03-02T12:34:21;16.30;99.90
13850;DHT22;6995;52.618;13.488;2024-03-02T12:36:47;16.30;99.90
13850;DHT22;6995;52.618;13.488;2024-03-02T12:39:21;16.50;99.90
13850;DHT22;6995;52.618;13.488;2024-03-02T12:41:50;16.60;99.90
13850;DHT22;6995;52.618;13.488;2024-03-02T12:44:20;16.40;99.90
13850;DHT22;6995;52.618;13.488;2024-03-02T12:46:46;16.00;99.90
13850;DHT22;6995;52.618;13.488;2024-03-02T12:49:14;15.80;99.90
13850;DHT22;6995;52.618;13.488;2024-03-02T12:51:42;15.90;99.90
13850;DHT22;6995;52.618;13.488;2024-03-02T12:54:11;16.00;99.90
13850;DHT22;6995;52.618;13.488;2024-03-02T12:56:37;16.20;99.90
13850;DHT22;6995;52.618;13.488;2024-03-02T12:59:04;16.40;99.90
13850;DHT22;6995;52.618;13.488;2024-03-02T13:01:30;16.70;99.90
13850;DHT22;6995;52.618;13.488;2024-03-02T13:03:58;16.60;99.90
13850;DHT22;6995;52.618;13.488;2024-03-02T13:06:24;16.70;99.90
13850;DHT22;6995;52.618;13.488;2024-03-02T13:08:53;16.80;99.90
13850;DHT22;6995;52.618;13.488;2024-03-02T13:11:20;16.90;99.90
13850;DHT22;6995;52.618;13.488;2024-03-02T13:13:46;16.80;99.90
13850;DHT22;6995;52.618;13.488;2024-03-02T13:16:12;16.80;99.90
13850;DHT22;6995;52.618;13.488;2024-03-02T13:18:41;17.00;99.90
13850;DHT22;6995;52.618;13.488;2024-03-02T13:21:08;16.90;99.90
13850;DHT22;6995;52.618;13.488;2024-03-02T13:23:34;17.10;99.90
13850;DHT22;6995;52.618;13.488;2024-03-02T13:26:00;17.20;99.90
13850;DHT22;6995;52.618;13.488;2024-03-02T13:28:26;17.60;99.90
13850;DHT22;6995;52.618;13.488;2024-03-02T13:30:51;17.90;99.90
13850;DHT22;6995;52.618;13.488;2024-03-02T13:33:17;18.10;99.90
13850;DHT22;6995;52.618;13.488;2024-03-02T13:35:51;18.30;99.90
13850;DHT22;6995;52.618;13.488;2024-03-02T13:38:20;18.50;99.90
13850;DHT22;6995;52.618;13.488;2024-03-02T13:40:49;18.70;99.90
13850;DHT22;6995;52.618;13.488;2024-03-02T13:43:18;18.40;99.90
13850;DHT22;6995;52.618;13.488;2024-03-02T13:45:47;17.90;99.90
13850;DHT22;6995;52.618;13.488;2024-03-02T13:48:13;18.10;99.90
13850;DHT22;6995;52.618;13.488;2024-03-02T13:50:40;18.50;99.90
13850;DHT22;6995;52.618;13.488;2024-03-02T13:53:06;18.50;99.90
13850;DHT22;6995;52.618;13.488;2024-03-02T13:55:32;18.50;99.90
13850;DHT22;6995;52.618;13.488;2024-03-02T13:57:58;18.50;99.90
13850;DHT22;6995;52.618;13.488;2024-03-02T14:00:24;18.60;99.90
13850;DHT22;6995;52.618;13.488;2024-03-02T14:02:50;18.50;99.90
13850;DHT22;6995;52.618;13.488;2024-03-02T14:05:16;18.70;99.90
13850;DHT22;6995;52.618;13.488;2024-03-02T14:07:42;18.80;99.90
13850;DHT22;6995;52.618;13.488;2024-03-02T14:10:09;19.10;99.90
13850;DHT22;6995;52.618;13.488;2024-03-02T14:12:36;19.20;99.90
13850;DHT22;6995;52.618;13.488;2024-03-02T14:15:02;19.30;99.90
13850;DHT22;6995;52.618;13.488;2024-03-02T14:17:30;19.20;99.90
13850;DHT22;6995;52.618;13.488;2024-03-02T14:19:59;19.30;99.90
13850;DHT22;6995;52.618;13.488;2024-03-02T14:22:25;19.40;99.90
13850;DHT22;6995;52.618;13.488;2024-03-02T14:24:50;19.60;99.90
13850;DHT22;6995;52.618;13.488;2024-03-02T14:27:16;19.80;99.90
13850;DHT22;6995;52.618;13.488;2024-03-02T14:29:43;20.00;99.90
13850;DHT22;6995;52.618;13.488;2024-03-02T14:32:09;19.90;99.90
13850;DHT22;6995;52.618;13.488;2024-03-02T14:34:34;19.80;99.90
13850;DHT22;6995;52.618;13.488;2024-03-02T14:37:00;19.80;99.90
13850;DHT22;6995;52.618;13.488;2024-03-02T14:39:26;19.60;99.90
13850;DHT22;6995;52.618;13.488;2024-03-02T14:41:52;19.50;99.90
13850;DHT22;6995;52.618;13.488;2024-03-02T14:44:18;19.50;99.90
13850;DHT22;6995;52.618;13.488;2024-03-02T14:46:46;19.40;99.90
13850;DHT22;6995;52.618;13.488;2024-03-02T14:49:13;19.30;99.90
13850;DHT22;6995;52.618;13.488;2024-03-02T14:51:38;19.10;99.90
13850;DHT22;6995;52.618;13.488;2024-03-02T14:54:04;19.10;99.90
13850;DHT22;6995;52.618;13.488;2024-03-02T14:56:30;19.10;99.90
13850;DHT22;6995;52.618;13.488;2024-03-02T14:58:56;18.60;99.90
13850;DHT22;6995;52.618;13.488;2024-03-02T15:01:21;18.30;99.90
13850;DHT22;6995;52.618;13.488;2024-03-02T15:03:49;18.00;99.90
13850;DHT22;6995;52.618;13.488;2024-03-02T15:06:15;17.70;99.90
13850;DHT22;6995;52.618;13.488;2024-03-02T15:08:41;17.40;99.90
13850;DHT22;6995;52.618;13.488;2024-03-02T15:11:08;17.00;99.90
13850;DHT22;6995;52.618;13.488;2024-03-02T15:13:34;16.70;99.90
13850;DHT22;6995;52.618;13.488;2024-03-02T15:16:00;16.40;99.90
13850;DHT22;6995;52.618;13.488;2024-03-02T15:18:25;16.10;99.90
13850;DHT22;6995;52.618;13.488;2024-03-02T15:20:52;16.00;99.90
13850;DHT22;6995;52.618;13.488;2024-03-02T15:23:19;15.80;99.90
13850;DHT22;6995;52.618;13.488;2024-03-02T15:25:44;15.50;99.90
13850;DHT22;6995;52.618;13.488;2024-03-02T15:28:10;15.20;99.90
13850;DHT22;6995;52.618;13.488;2024-03-02T15:30:35;15.00;99.90
13850;DHT22;6995;52.618;13.488;2024-03-02T15:33:02;14.80;99.90
13850;DHT22;6995;52.618;13.488;2024-03-02T15:35:28;14.70;99.90
13850;DHT22;6995;52.618;13.488;2024-03-02T15:37:53;14.70;99.90
13850;DHT22;6995;52.618;13.488;2024-03-02T15:40:19;14.60;99.90
13850;DHT22;6995;52.618;13.488;2024-03-02T15:42:45;14.50;99.90
13850;DHT22;6995;52.618;13.488;2024-03-02T15:45:10;14.30;99.90
13850;DHT22;6995;52.618;13.488;2024-03-02T15:47:36;14.30;99.90
13850;DHT22;6995;52.618;13.488;2024-03-02T15:50:02;14.10;99.90
13850;DHT22;6995;52.618;13.488;2024-03-02T15:52:29;14.10;99.90